createdAt,value
2019-01-25T00:00:21.554Z,37.83
2019-01-25T00:02:50.322Z,28.07
2019-01-25T00:05:19.514Z,47.10
2019-01-25T00:07:48.654Z,43.15
2019-01-25T00:10:17.956Z,36.15
2019-01-25T00:12:46.918Z,33.42
2019-01-25T00:15:16.222Z,34.63
2019-01-25T00:17:45.616Z,31.62
2019-01-25T00:20:14.702Z,41.58
2019-01-25T00:22:43.680Z,28.45
2019-01-25T00:25:12.797Z,20.52
2019-01-25T00:27:41.561Z,31.40
2019-01-25T00:30:12.462Z,39.30
2019-01-25T00:32:41.269Z,50.92
2019-01-25T00:35:10.278Z,39.63
2019-01-25T00:37:39.115Z,43.30
2019-01-25T00:40:10.254Z,48.90
2019-01-25T00:42:39.073Z,33.20
2019-01-25T00:45:08.618Z,29.57
2019-01-25T00:47:37.706Z,44.73
2019-01-25T00:50:10.762Z,43.23
2019-01-25T00:52:39.644Z,35.23
2019-01-25T00:55:08.843Z,42.53
2019-01-25T00:57:37.747Z,46.23
2019-01-25T01:00:11.278Z,31.42
2019-01-25T01:02:40.291Z,39.83
2019-01-25T01:05:09.675Z,47.00
2019-01-25T01:07:38.602Z,52.70
2019-01-25T01:10:14.062Z,42.23
2019-01-25T01:12:40.838Z,29.23
2019-01-25T01:15:10.325Z,44.85
2019-01-25T01:17:39.283Z,39.18
2019-01-25T01:20:10.733Z,39.63
2019-01-25T01:22:40.369Z,48.75
2019-01-25T01:25:10.561Z,45.55
2019-01-25T01:27:39.479Z,41.73
2019-01-25T01:30:11.147Z,45.30
2019-01-25T01:32:39.979Z,47.13
2019-01-25T01:35:09.129Z,41.00
2019-01-25T01:37:37.960Z,34.55
2019-01-25T01:40:11.643Z,37.88
2019-01-25T01:42:40.845Z,37.55
2019-01-25T01:45:10.145Z,43.58
2019-01-25T01:47:39.116Z,34.30
2019-01-25T01:50:09.863Z,37.10
2019-01-25T01:52:39.309Z,37.42
2019-01-25T01:55:08.579Z,42.65
2019-01-25T01:57:37.528Z,25.95
2019-01-25T02:00:12.567Z,41.53
2019-01-25T02:02:41.399Z,35.60
2019-01-25T02:05:10.449Z,38.65
2019-01-25T02:07:39.360Z,33.75
2019-01-25T02:10:11.086Z,38.98
2019-01-25T02:12:39.935Z,37.80
2019-01-25T02:15:10.712Z,26.65
2019-01-25T02:17:39.895Z,33.80
2019-01-25T02:20:11.382Z,36.25
2019-01-25T02:22:40.335Z,36.45
2019-01-25T02:25:09.368Z,43.52
2019-01-25T02:27:38.467Z,26.87
2019-01-25T02:30:10.221Z,34.95
2019-01-25T02:32:39.610Z,39.15
2019-01-25T02:35:09.008Z,42.27
2019-01-25T02:37:37.881Z,34.80
2019-01-25T02:40:07.457Z,44.18
2019-01-25T02:42:36.376Z,43.42
2019-01-25T02:45:05.938Z,39.05
2019-01-25T02:47:34.723Z,34.92
2019-01-25T02:50:04.592Z,42.73
2019-01-25T02:52:33.688Z,30.35
2019-01-25T02:55:02.456Z,34.98
2019-01-25T02:57:31.294Z,35.63
2019-01-25T03:00:00.062Z,29.12
2019-01-25T03:02:28.907Z,37.85
2019-01-25T03:04:57.752Z,35.68
2019-01-25T03:07:26.637Z,32.28
2019-01-25T03:09:55.653Z,39.92
2019-01-25T03:12:24.436Z,42.58
2019-01-25T03:14:53.227Z,51.92
2019-01-25T03:17:21.998Z,38.48
2019-01-25T03:19:50.855Z,34.60
2019-01-25T03:22:19.704Z,46.90
2019-01-25T03:24:48.579Z,43.02
2019-01-25T03:27:17.643Z,20.80
2019-01-25T03:29:46.437Z,43.35
2019-01-25T03:32:15.471Z,32.85
2019-01-25T03:34:44.845Z,34.40
2019-01-25T03:37:13.646Z,41.05
2019-01-25T03:39:42.568Z,37.78
2019-01-25T03:42:11.355Z,37.23
2019-01-25T03:44:40.512Z,33.70
2019-01-25T03:47:09.384Z,42.20
2019-01-25T03:49:38.414Z,42.80
2019-01-25T03:52:07.368Z,42.88
2019-01-25T03:54:36.354Z,38.60
2019-01-25T03:57:05.222Z,38.38
2019-01-25T03:59:33.995Z,39.65
2019-01-25T04:02:03.159Z,36.55
2019-01-25T04:04:32.283Z,37.58
2019-01-25T04:07:01.225Z,50.67
2019-01-25T04:09:30.270Z,42.00
2019-01-25T04:11:59.440Z,43.17
2019-01-25T04:14:28.607Z,43.60
2019-01-25T04:16:57.534Z,36.38
2019-01-25T04:19:26.404Z,40.00
2019-01-25T04:21:55.192Z,45.05
2019-01-25T04:24:23.964Z,47.70
2019-01-25T04:26:53.041Z,50.08
2019-01-25T04:29:22.137Z,50.45
2019-01-25T04:31:50.909Z,43.20
2019-01-25T04:34:19.748Z,44.77
2019-01-25T04:36:48.875Z,36.83
2019-01-25T04:39:18.196Z,48.95
2019-01-25T04:41:47.110Z,45.55
2019-01-25T04:44:15.916Z,40.33
2019-01-25T04:46:44.686Z,36.25
2019-01-25T04:49:13.485Z,38.88
2019-01-25T04:51:42.270Z,44.85
2019-01-25T04:54:11.465Z,40.35
2019-01-25T04:56:40.414Z,33.15
2019-01-25T04:59:09.374Z,42.35
2019-01-25T05:01:38.215Z,48.38
2019-01-25T05:04:07.137Z,46.30
2019-01-25T05:06:36.229Z,52.88
2019-01-25T05:09:08.189Z,35.20
2019-01-25T05:11:38.246Z,44.77
2019-01-25T05:14:07.459Z,31.42
2019-01-25T05:16:36.258Z,42.20
2019-01-25T05:19:05.304Z,45.75
2019-01-25T05:21:34.196Z,39.40
2019-01-25T05:24:10.649Z,49.00
2019-01-25T05:26:39.711Z,46.13
2019-01-25T05:29:08.801Z,51.10
2019-01-25T05:31:37.580Z,40.95
2019-01-25T05:34:06.477Z,29.82
2019-01-25T05:36:35.676Z,41.83
2019-01-25T05:39:07.990Z,47.10
2019-01-25T05:41:36.923Z,42.23
2019-01-25T05:44:05.998Z,51.25
2019-01-25T05:46:34.780Z,52.73
2019-01-25T05:49:03.892Z,46.60
2019-01-25T05:51:33.710Z,45.75
2019-01-25T05:54:03.275Z,51.37
2019-01-25T05:56:32.291Z,59.27
2019-01-25T05:59:01.308Z,38.98
2019-01-25T06:01:30.088Z,56.95
2019-01-25T06:03:58.923Z,45.08
2019-01-25T06:06:27.800Z,39.38
2019-01-25T06:08:56.655Z,45.30
2019-01-25T06:11:25.428Z,60.40
2019-01-25T06:13:54.493Z,48.30
2019-01-25T06:16:23.596Z,50.00
2019-01-25T06:18:52.736Z,50.20
2019-01-25T06:21:21.594Z,43.83
2019-01-25T06:23:54.328Z,42.00
2019-01-25T06:26:23.390Z,54.85
2019-01-25T06:28:52.664Z,43.83
2019-01-25T06:31:21.670Z,45.05
2019-01-25T06:33:51.187Z,53.78
2019-01-25T06:36:20.073Z,57.65
2019-01-25T06:38:48.979Z,60.98
2019-01-25T06:41:17.903Z,47.08
2019-01-25T06:43:47.229Z,44.80
2019-01-25T06:46:16.107Z,67.55
2019-01-25T06:48:45.082Z,61.73
2019-01-25T06:51:14.024Z,45.48
2019-01-25T06:53:42.804Z,53.68
2019-01-25T06:56:11.686Z,57.15
2019-01-25T06:59:11.777Z,63.28
2019-01-25T07:01:45.128Z,50.12
2019-01-25T07:04:14.015Z,49.70
2019-01-25T07:06:43.119Z,51.08
2019-01-25T07:09:13.000Z,38.83
2019-01-25T07:11:42.502Z,57.10
2019-01-25T07:14:11.638Z,57.48
2019-01-25T07:16:40.647Z,62.45
2019-01-25T07:19:09.786Z,54.25
2019-01-25T07:21:38.655Z,61.50
2019-01-25T07:24:07.611Z,52.73
2019-01-25T07:26:36.573Z,48.17
2019-01-25T07:29:05.452Z,46.98
2019-01-25T07:31:34.414Z,54.80
2019-01-25T07:34:03.373Z,62.27
2019-01-25T07:36:32.516Z,59.70
2019-01-25T07:39:05.181Z,46.30
2019-01-25T07:41:34.292Z,58.10
2019-01-25T07:44:03.158Z,47.13
2019-01-25T07:46:32.297Z,52.55
2019-01-25T07:49:01.205Z,63.60
2019-01-25T07:51:30.097Z,60.10
2019-01-25T07:53:59.365Z,55.85
2019-01-25T07:56:28.468Z,57.15
2019-01-25T07:58:57.943Z,57.60
2019-01-25T08:01:27.014Z,48.70
2019-01-25T08:03:55.880Z,57.78
2019-01-25T08:06:24.961Z,65.52
2019-01-25T08:08:53.989Z,62.30
2019-01-25T08:11:23.419Z,57.45
2019-01-25T08:13:52.213Z,51.23
2019-01-25T08:16:21.081Z,64.80
2019-01-25T08:18:50.200Z,55.03
2019-01-25T08:21:19.291Z,63.60
2019-01-25T08:23:48.453Z,49.53
2019-01-25T08:26:17.286Z,51.13
2019-01-25T08:28:46.441Z,55.12
2019-01-25T08:31:15.575Z,61.80
2019-01-25T08:33:44.438Z,43.13
2019-01-25T08:36:13.685Z,57.67
2019-01-25T08:38:42.571Z,57.08
2019-01-25T08:41:11.705Z,62.23
2019-01-25T08:43:40.728Z,58.60
2019-01-25T08:46:09.588Z,62.95
2019-01-25T08:48:38.433Z,66.42
2019-01-25T08:51:07.397Z,47.62
2019-01-25T08:53:36.260Z,69.80
2019-01-25T08:56:06.457Z,62.60
2019-01-25T08:58:35.939Z,59.03
2019-01-25T09:01:05.616Z,52.40
2019-01-25T09:03:34.756Z,57.90
2019-01-25T09:06:03.668Z,44.88
2019-01-25T09:08:33.367Z,69.58
2019-01-25T09:11:02.242Z,71.55
2019-01-25T09:13:31.021Z,53.13
2019-01-25T09:15:59.858Z,62.33
2019-01-25T09:18:28.675Z,53.52
2019-01-25T09:20:57.756Z,67.03
2019-01-25T09:23:26.859Z,75.55
2019-01-25T09:26:00.929Z,63.68
2019-01-25T09:28:26.426Z,54.67
2019-01-25T09:30:55.512Z,64.58
2019-01-25T09:33:24.282Z,51.55
2019-01-25T09:35:53.080Z,60.15
2019-01-25T09:38:21.975Z,59.18
2019-01-25T09:40:50.847Z,55.40
2019-01-25T09:43:19.959Z,75.42
2019-01-25T09:45:49.048Z,58.83
2019-01-25T09:48:17.832Z,74.65
2019-01-25T09:50:52.661Z,67.95
2019-01-25T09:53:17.282Z,60.40
2019-01-25T09:55:46.108Z,62.75
2019-01-25T09:58:16.775Z,54.85
2019-01-25T10:00:52.662Z,47.23
2019-01-25T10:03:21.511Z,69.15
2019-01-25T10:05:50.645Z,66.22
2019-01-25T10:08:19.999Z,54.70
2019-01-25T10:10:48.879Z,68.07
2019-01-25T10:13:17.668Z,62.40
2019-01-25T10:15:46.618Z,66.95
2019-01-25T10:18:15.565Z,73.07
2019-01-25T10:20:45.014Z,64.53
2019-01-25T10:23:14.180Z,84.87
2019-01-25T10:25:42.971Z,72.25
2019-01-25T10:28:11.829Z,69.37
2019-01-25T10:30:40.631Z,46.68
2019-01-25T10:33:09.607Z,65.25
2019-01-25T10:35:38.530Z,73.60
2019-01-25T10:38:07.618Z,64.22
2019-01-25T10:40:36.495Z,72.85
2019-01-25T10:43:05.798Z,83.00
2019-01-25T10:45:36.476Z,59.58
2019-01-25T10:48:06.112Z,71.28
2019-01-25T10:50:35.025Z,91.60
2019-01-25T10:53:04.635Z,65.12
2019-01-25T10:55:33.837Z,75.25
2019-01-25T10:58:02.874Z,61.10
2019-01-25T11:00:31.830Z,77.60
2019-01-25T11:03:00.591Z,67.70
2019-01-25T11:05:29.802Z,70.70
2019-01-25T11:07:58.668Z,79.07
2019-01-25T11:10:27.540Z,84.83
2019-01-25T11:13:01.065Z,84.75
2019-01-25T11:15:27.259Z,74.72
2019-01-25T11:17:56.092Z,68.70
2019-01-25T11:20:25.273Z,69.70
2019-01-25T11:22:54.127Z,74.25
2019-01-25T11:25:28.384Z,79.97
2019-01-25T11:27:57.520Z,67.30
2019-01-25T11:30:26.885Z,76.30
2019-01-25T11:32:55.864Z,66.77
2019-01-25T11:35:24.919Z,70.47
2019-01-25T11:37:53.952Z,76.80
2019-01-25T11:40:25.323Z,75.85
2019-01-25T11:42:54.339Z,68.33
2019-01-25T11:45:23.479Z,67.15
2019-01-25T11:47:52.400Z,69.32
2019-01-25T11:50:21.430Z,70.78
2019-01-25T11:52:51.241Z,83.92
2019-01-25T11:55:20.276Z,77.95
2019-01-25T11:57:49.074Z,81.28
2019-01-25T12:00:23.136Z,70.75
2019-01-25T12:02:52.467Z,69.35
2019-01-25T12:05:22.667Z,64.10
2019-01-25T12:07:51.815Z,76.02
2019-01-25T12:10:23.048Z,71.77
2019-01-25T12:12:51.842Z,76.07
2019-01-25T12:15:21.033Z,66.97
2019-01-25T12:17:49.863Z,81.72
2019-01-25T12:20:20.956Z,76.57
2019-01-25T12:22:50.096Z,79.10
2019-01-25T12:25:18.993Z,76.45
2019-01-25T12:27:47.840Z,59.55
2019-01-25T12:30:31.726Z,69.30
2019-01-25T12:33:00.796Z,82.60
2019-01-25T12:35:31.897Z,78.33
2019-01-25T12:38:00.654Z,65.28
2019-01-25T12:40:29.513Z,73.60
2019-01-25T12:42:58.669Z,65.28
2019-01-25T12:45:28.024Z,61.73
2019-01-25T12:47:57.147Z,73.85
2019-01-25T12:50:31.687Z,59.15
2019-01-25T12:53:01.812Z,69.22
2019-01-25T12:55:32.765Z,75.45
2019-01-25T12:58:01.390Z,71.53
2019-01-25T13:00:31.247Z,76.10
2019-01-25T13:03:00.309Z,72.65
2019-01-25T13:05:29.607Z,85.35
2019-01-25T13:07:58.665Z,55.85
2019-01-25T13:10:27.599Z,74.60
2019-01-25T13:12:56.607Z,77.00
2019-01-25T13:15:25.683Z,67.12
2019-01-25T13:17:55.252Z,86.37
2019-01-25T13:20:26.258Z,63.05
2019-01-25T13:22:55.323Z,73.80
2019-01-25T13:25:24.168Z,64.62
2019-01-25T13:27:53.004Z,38.65
2019-01-25T13:30:24.291Z,50.30
2019-01-25T13:32:53.205Z,73.35
2019-01-25T13:35:22.712Z,58.87
2019-01-25T13:37:51.587Z,85.92
2019-01-25T13:40:21.564Z,82.67
2019-01-25T13:42:51.834Z,95.55
2019-01-25T13:45:21.458Z,86.90
2019-01-25T13:47:50.528Z,75.45
2019-01-25T13:50:21.701Z,74.53
2019-01-25T13:52:50.691Z,101.53
2019-01-25T13:55:20.448Z,86.75
2019-01-25T13:57:49.387Z,60.90
2019-01-25T14:00:22.844Z,87.08
2019-01-25T14:02:52.107Z,81.70
2019-01-25T14:05:21.448Z,72.82
2019-01-25T14:07:51.240Z,67.80
2019-01-25T14:10:22.706Z,66.42
2019-01-25T14:12:51.614Z,64.35
2019-01-25T14:15:20.561Z,63.45
2019-01-25T14:17:49.420Z,68.50
2019-01-25T14:20:23.402Z,64.67
2019-01-25T14:22:51.072Z,71.47
2019-01-25T14:25:20.097Z,68.45
2019-01-25T14:27:49.319Z,70.15
2019-01-25T14:30:21.398Z,63.52
2019-01-25T14:32:50.507Z,72.42
2019-01-25T14:35:19.712Z,83.03
2019-01-25T14:37:48.666Z,67.17
2019-01-25T14:40:17.901Z,64.37
2019-01-25T14:42:47.055Z,75.20
2019-01-25T14:45:16.151Z,70.57
2019-01-25T14:47:45.035Z,81.55
2019-01-25T14:50:16.844Z,72.22
2019-01-25T14:52:46.235Z,65.03
2019-01-25T14:55:15.212Z,71.82
2019-01-25T14:57:44.052Z,68.87
2019-01-25T15:00:13.083Z,72.35
2019-01-25T15:02:42.288Z,55.00
2019-01-25T15:05:14.898Z,76.82
2019-01-25T15:07:43.879Z,57.48
2019-01-25T15:10:15.430Z,60.35
2019-01-25T15:12:44.671Z,60.08
2019-01-25T15:15:14.088Z,56.90
2019-01-25T15:17:42.989Z,78.65
2019-01-25T15:20:15.570Z,77.12
2019-01-25T15:22:45.422Z,66.50
2019-01-25T15:25:15.232Z,72.45
2019-01-25T15:27:44.191Z,58.20
2019-01-25T15:30:21.940Z,65.75
2019-01-25T15:32:50.774Z,62.00
2019-01-25T15:35:20.906Z,65.28
2019-01-25T15:37:49.892Z,56.60
2019-01-25T15:40:19.192Z,69.55
2019-01-25T15:42:48.722Z,52.55
2019-01-25T15:45:18.160Z,55.83
2019-01-25T15:47:47.355Z,71.33
2019-01-25T15:50:24.697Z,56.98
2019-01-25T15:52:53.775Z,53.05
2019-01-25T15:55:23.047Z,49.40
2019-01-25T15:57:52.244Z,58.28
2019-01-25T16:00:22.807Z,53.87
2019-01-25T16:02:51.840Z,55.48
2019-01-25T16:05:21.924Z,47.78
2019-01-25T16:07:50.816Z,50.80
2019-01-25T16:10:21.473Z,43.52
2019-01-25T16:12:50.638Z,44.50
2019-01-25T16:15:24.866Z,45.05
2019-01-25T16:17:53.713Z,51.83
2019-01-25T16:20:22.862Z,51.28
2019-01-25T16:22:51.860Z,35.25
2019-01-25T16:25:23.422Z,46.80
2019-01-25T16:27:52.615Z,48.68
2019-01-25T16:30:24.727Z,43.70
2019-01-25T16:32:54.184Z,39.20
2019-01-25T16:35:23.101Z,49.13
2019-01-25T16:37:52.036Z,49.45
2019-01-25T16:40:21.815Z,36.77
2019-01-25T16:42:50.695Z,50.10
2019-01-25T16:45:22.171Z,44.65
2019-01-25T16:47:51.095Z,26.00
2019-01-25T16:50:23.919Z,24.15
2019-01-25T16:52:50.759Z,34.38
2019-01-25T16:55:19.704Z,16.93
2019-01-25T16:57:48.564Z,32.53
2019-01-25T17:00:26.875Z,26.90
2019-01-25T17:02:56.224Z,23.75
2019-01-25T17:05:25.360Z,26.12
2019-01-25T17:07:54.638Z,25.10
2019-01-25T17:10:23.648Z,15.35
2019-01-25T17:12:52.627Z,22.62
2019-01-25T17:15:22.047Z,24.35
2019-01-25T17:17:50.942Z,23.02
2019-01-25T17:20:21.426Z,19.12
2019-01-25T17:22:50.896Z,21.62
2019-01-25T17:25:20.016Z,19.05
2019-01-25T17:27:49.053Z,26.73
2019-01-25T17:30:23.431Z,24.37
2019-01-25T17:32:52.710Z,19.10
2019-01-25T17:35:21.548Z,26.82
2019-01-25T17:37:50.579Z,24.65
2019-01-25T17:40:20.897Z,26.77
2019-01-25T17:42:49.834Z,34.15
2019-01-25T17:45:18.871Z,34.33
2019-01-25T17:47:48.138Z,31.17
2019-01-25T17:50:17.199Z,30.60
2019-01-25T17:52:46.045Z,40.50
2019-01-25T17:55:15.174Z,30.68
2019-01-25T17:57:44.112Z,31.33
2019-01-25T18:00:19.987Z,28.38
2019-01-25T18:02:49.334Z,30.80
2019-01-25T18:05:18.416Z,24.67
2019-01-25T18:07:47.277Z,25.77
2019-01-25T18:10:16.678Z,30.02
2019-01-25T18:12:45.640Z,30.48
2019-01-25T18:15:15.371Z,18.75
2019-01-25T18:17:44.551Z,23.32
2019-01-25T18:20:15.104Z,26.15
2019-01-25T18:22:44.055Z,23.12
2019-01-25T18:25:15.758Z,34.90
2019-01-25T18:27:48.500Z,24.18
2019-01-25T18:30:30.959Z,32.53
2019-01-25T18:32:59.711Z,20.92
2019-01-25T18:35:28.586Z,35.73
2019-01-25T18:37:57.483Z,27.52
2019-01-25T18:40:26.581Z,35.80
2019-01-25T18:42:55.431Z,40.43
2019-01-25T18:45:24.396Z,43.33
2019-01-25T18:47:53.600Z,38.13
2019-01-25T18:50:22.571Z,29.70
2019-01-25T18:52:51.556Z,30.85
2019-01-25T18:55:21.226Z,31.97
2019-01-25T18:57:50.123Z,32.65
2019-01-25T19:00:19.991Z,36.50
2019-01-25T19:02:48.951Z,31.90
2019-01-25T19:05:17.939Z,37.17
2019-01-25T19:07:46.779Z,36.70
2019-01-25T19:10:21.562Z,38.55
2019-01-25T19:12:50.818Z,36.50
2019-01-25T19:15:22.963Z,36.75
2019-01-25T19:17:51.863Z,37.25
2019-01-25T19:20:21.539Z,34.78
2019-01-25T19:22:50.565Z,33.25
2019-01-25T19:25:19.527Z,24.35
2019-01-25T19:27:48.707Z,25.48
2019-01-25T19:30:29.111Z,38.05
2019-01-25T19:32:58.078Z,45.58
2019-01-25T19:35:26.875Z,37.65
2019-01-25T19:37:56.078Z,40.35
2019-01-25T19:40:26.359Z,48.35
2019-01-25T19:42:55.361Z,37.20
2019-01-25T19:45:24.708Z,46.00
2019-01-25T19:47:53.664Z,36.40
2019-01-25T19:50:22.667Z,37.93
2019-01-25T19:52:51.559Z,48.98
2019-01-25T19:55:22.366Z,60.20
2019-01-25T19:57:51.343Z,41.08
2019-01-25T20:00:31.184Z,35.38
2019-01-25T20:03:00.171Z,41.77
2019-01-25T20:05:29.840Z,37.48
2019-01-25T20:07:58.772Z,47.08
2019-01-25T20:10:27.819Z,44.75
2019-01-25T20:12:56.764Z,39.42
2019-01-25T20:15:26.071Z,41.63
2019-01-25T20:17:55.207Z,48.85
2019-01-25T20:20:26.315Z,40.23
2019-01-25T20:22:55.175Z,57.88
2019-01-25T20:25:24.172Z,49.80
2019-01-25T20:27:53.212Z,38.13
2019-01-25T20:30:27.320Z,36.23
2019-01-25T20:32:56.395Z,28.70
2019-01-25T20:35:28.049Z,41.25
2019-01-25T20:37:57.023Z,36.13
2019-01-25T20:40:26.203Z,35.45
2019-01-25T20:42:55.063Z,50.12
2019-01-25T20:45:27.294Z,27.58
2019-01-25T20:47:56.456Z,44.67
2019-01-25T20:50:27.090Z,48.50
2019-01-25T20:52:56.299Z,50.88
2019-01-25T20:55:25.255Z,47.43
2019-01-25T20:57:54.516Z,40.60
2019-01-25T21:00:25.754Z,38.58
2019-01-25T21:02:54.743Z,47.17
2019-01-25T21:05:23.611Z,50.33
2019-01-25T21:07:52.541Z,63.83
2019-01-25T21:10:22.491Z,39.90
2019-01-25T21:12:51.596Z,44.63
2019-01-25T21:15:21.910Z,55.67
2019-01-25T21:17:50.699Z,32.95
2019-01-25T21:20:21.886Z,37.05
2019-01-25T21:22:51.050Z,53.17
2019-01-25T21:25:19.969Z,40.58
2019-01-25T21:27:48.898Z,48.13
2019-01-25T21:30:20.629Z,54.27
2019-01-25T21:32:49.720Z,42.93
2019-01-25T21:35:18.563Z,42.65
2019-01-25T21:37:47.568Z,40.10
2019-01-25T21:40:18.740Z,42.50
2019-01-25T21:42:47.688Z,62.35
2019-01-25T21:45:21.669Z,36.48
2019-01-25T21:47:50.737Z,48.40
2019-01-25T21:50:21.815Z,37.83
2019-01-25T21:52:50.722Z,29.52
2019-01-25T21:55:19.869Z,52.70
2019-01-25T21:57:48.772Z,50.88
2019-01-25T22:00:23.023Z,32.40
2019-01-25T22:02:52.603Z,52.80
2019-01-25T22:05:21.635Z,39.48
2019-01-25T22:07:50.880Z,51.70
2019-01-25T22:10:25.211Z,44.27
2019-01-25T22:12:54.067Z,26.73
2019-01-25T22:15:22.992Z,43.58
2019-01-25T22:17:52.186Z,38.98
2019-01-25T22:20:22.813Z,36.45
2019-01-25T22:22:51.765Z,55.78
2019-01-25T22:25:20.869Z,49.45
2019-01-25T22:27:51.401Z,41.25
2019-01-25T22:30:21.738Z,40.05
2019-01-25T22:32:50.656Z,49.75
2019-01-25T22:35:20.019Z,49.05
2019-01-25T22:37:49.079Z,44.63
2019-01-25T22:40:20.740Z,39.40
2019-01-25T22:42:49.627Z,49.83
2019-01-25T22:45:20.552Z,55.45
2019-01-25T22:47:49.515Z,41.45
2019-01-25T22:50:23.656Z,45.58
2019-01-25T22:52:52.459Z,22.20
2019-01-25T22:55:21.751Z,39.38
2019-01-25T22:57:51.023Z,34.38
2019-01-25T23:00:48.887Z,37.20
2019-01-25T23:03:20.639Z,35.33
2019-01-25T23:06:12.036Z,40.08
2019-01-25T23:08:40.849Z,41.50
2019-01-25T23:11:10.053Z,31.65
2019-01-25T23:13:39.184Z,40.08
2019-01-25T23:16:08.150Z,33.88
2019-01-25T23:18:36.923Z,48.08
2019-01-25T23:21:06.108Z,37.63
2019-01-25T23:23:35.008Z,45.05
2019-01-25T23:26:04.248Z,25.72
2019-01-25T23:28:33.021Z,34.63
2019-01-25T23:31:01.955Z,23.27
2019-01-25T23:33:30.868Z,46.70
2019-01-25T23:36:00.349Z,40.60
2019-01-25T23:38:29.897Z,38.35
2019-01-25T23:40:58.753Z,48.23
2019-01-25T23:43:27.563Z,21.48
2019-01-25T23:45:56.393Z,25.80
2019-01-25T23:48:25.413Z,22.15
2019-01-25T23:50:54.287Z,30.17
2019-01-25T23:53:23.138Z,42.73
2019-01-25T23:55:51.956Z,29.32
2019-01-25T23:58:21.339Z,28.57
